sensor_id;sensor_type;location;lat;lon;timestamp;P1;durP1;ratioP1;P2;durP2;ratioP2
21758;SDS011;11041;50.854;20.580;2024-01-16T00:00:58;13.13;;;8.57;;
21758;SDS011;11041;50.854;20.580;2024-01-16T00:03:43;13.27;;;8.80;;
21758;SDS011;11041;50.854;20.580;2024-01-16T00:06:10;17.80;;;10.03;;
21758;SDS011;11041;50.854;20.580;2024-01-16T00:08:38;19.23;;;11.33;;
21758;SDS011;11041;50.854;20.580;2024-01-16T00:11:05;14.17;;;7.97;;
21758;SDS011;11041;50.854;20.580;2024-01-16T00:13:32;15.40;;;8.60;;
21758;SDS011;11041;50.854;20.580;2024-01-16T00:16:01;12.43;;;7.57;;
21758;SDS011;11041;50.854;20.580;2024-01-16T00:18:31;13.73;;;8.00;;
21758;SDS011;11041;50.854;20.580;2024-01-16T00:21:00;16.67;;;8.97;;
21758;SDS011;11041;50.854;20.580;2024-01-16T00:23:30;14.00;;;8.10;;
21758;SDS011;11041;50.854;20.580;2024-01-16T00:25:57;11.10;;;7.60;;
21758;SDS011;11041;50.854;20.580;2024-01-16T00:28:24;10.07;;;6.20;;
21758;SDS011;11041;50.854;20.580;2024-01-16T00:30:52;10.13;;;6.13;;
21758;SDS011;11041;50.854;20.580;2024-01-16T00:33:19;10.97;;;6.50;;
21758;SDS011;11041;50.854;20.580;2024-01-16T00:35:46;10.82;;;6.32;;
21758;SDS011;11041;50.854;20.580;2024-01-16T00:38:13;8.38;;;5.28;;
21758;SDS011;11041;50.854;20.580;2024-01-16T00:40:41;8.27;;;5.43;;
21758;SDS011;11041;50.854;20.580;2024-01-16T00:43:09;8.87;;;5.30;;
21758;SDS011;11041;50.854;20.580;2024-01-16T00:45:36;8.07;;;4.80;;
21758;SDS011;11041;50.854;20.580;2024-01-16T00:48:07;11.53;;;4.77;;
21758;SDS011;11041;50.854;20.580;2024-01-16T00:50:35;7.88;;;4.38;;
21758;SDS011;11041;50.854;20.580;2024-01-16T00:53:02;6.70;;;4.00;;
21758;SDS011;11041;50.854;20.580;2024-01-16T00:55:29;8.03;;;4.23;;
21758;SDS011;11041;50.854;20.580;2024-01-16T00:57:58;7.67;;;4.47;;
21758;SDS011;11041;50.854;20.580;2024-01-16T01:00:24;5.73;;;3.57;;
21758;SDS011;11041;50.854;20.580;2024-01-16T01:02:52;8.70;;;3.60;;
21758;SDS011;11041;50.854;20.580;2024-01-16T01:05:19;5.73;;;3.43;;
21758;SDS011;11041;50.854;20.580;2024-01-16T01:07:46;7.57;;;3.70;;
21758;SDS011;11041;50.854;20.580;2024-01-16T01:10:13;10.53;;;4.07;;
21758;SDS011;11041;50.854;20.580;2024-01-16T01:12:44;5.30;;;3.83;;
21758;SDS011;11041;50.854;20.580;2024-01-16T01:15:11;3.33;;;2.60;;
21758;SDS011;11041;50.854;20.580;2024-01-16T01:17:39;7.33;;;2.80;;
21758;SDS011;11041;50.854;20.580;2024-01-16T01:20:08;5.03;;;2.90;;
21758;SDS011;11041;50.854;20.580;2024-01-16T01:22:36;3.57;;;2.70;;
21758;SDS011;11041;50.854;20.580;2024-01-16T01:25:04;5.70;;;2.77;;
21758;SDS011;11041;50.854;20.580;2024-01-16T01:27:33;4.27;;;2.27;;
21758;SDS011;11041;50.854;20.580;2024-01-16T01:30:00;4.90;;;2.87;;
21758;SDS011;11041;50.854;20.580;2024-01-16T01:32:30;3.33;;;2.87;;
21758;SDS011;11041;50.854;20.580;2024-01-16T01:34:57;4.40;;;2.73;;
21758;SDS011;11041;50.854;20.580;2024-01-16T01:37:26;4.77;;;2.60;;
21758;SDS011;11041;50.854;20.580;2024-01-16T01:39:53;3.80;;;2.80;;
21758;SDS011;11041;50.854;20.580;2024-01-16T01:42:20;8.13;;;3.13;;
21758;SDS011;11041;50.854;20.580;2024-01-16T01:44:47;6.63;;;3.37;;
21758;SDS011;11041;50.854;20.580;2024-01-16T01:47:15;5.63;;;2.63;;
21758;SDS011;11041;50.854;20.580;2024-01-16T01:49:44;5.23;;;3.07;;
21758;SDS011;11041;50.854;20.580;2024-01-16T01:52:11;8.97;;;3.47;;
21758;SDS011;11041;50.854;20.580;2024-01-16T01:54:40;8.53;;;3.07;;
21758;SDS011;11041;50.854;20.580;2024-01-16T01:57:08;8.83;;;3.23;;
21758;SDS011;11041;50.854;20.580;2024-01-16T01:59:37;9.10;;;3.40;;
21758;SDS011;11041;50.854;20.580;2024-01-16T02:02:05;9.93;;;3.23;;
21758;SDS011;11041;50.854;20.580;2024-01-16T02:04:32;7.83;;;3.33;;
21758;SDS011;11041;50.854;20.580;2024-01-16T02:07:02;7.03;;;3.27;;
21758;SDS011;11041;50.854;20.580;2024-01-16T02:09:30;6.97;;;3.10;;
21758;SDS011;11041;50.854;20.580;2024-01-16T02:11:58;5.80;;;3.03;;
21758;SDS011;11041;50.854;20.580;2024-01-16T02:14:26;8.47;;;3.43;;
21758;SDS011;11041;50.854;20.580;2024-01-16T02:16:53;6.17;;;2.90;;
21758;SDS011;11041;50.854;20.580;2024-01-16T02:19:21;7.33;;;3.20;;
21758;SDS011;11041;50.854;20.580;2024-01-16T02:21:51;10.33;;;3.40;;
21758;SDS011;11041;50.854;20.580;2024-01-16T02:24:25;4.10;;;2.90;;
21758;SDS011;11041;50.854;20.580;2024-01-16T02:26:53;6.97;;;3.03;;
21758;SDS011;11041;50.854;20.580;2024-01-16T02:29:19;10.00;;;3.77;;
21758;SDS011;11041;50.854;20.580;2024-01-16T02:31:46;7.70;;;3.60;;
21758;SDS011;11041;50.854;20.580;2024-01-16T02:34:12;6.67;;;3.37;;
21758;SDS011;11041;50.854;20.580;2024-01-16T02:36:41;10.67;;;3.77;;
21758;SDS011;11041;50.854;20.580;2024-01-16T02:39:07;7.10;;;3.90;;
21758;SDS011;11041;50.854;20.580;2024-01-16T02:41:35;7.90;;;4.07;;
21758;SDS011;11041;50.854;20.580;2024-01-16T02:44:02;7.57;;;3.57;;
21758;SDS011;11041;50.854;20.580;2024-01-16T02:46:29;7.13;;;4.03;;
21758;SDS011;11041;50.854;20.580;2024-01-16T02:48:59;11.27;;;3.77;;
21758;SDS011;11041;50.854;20.580;2024-01-16T02:51:26;7.90;;;4.23;;
21758;SDS011;11041;50.854;20.580;2024-01-16T02:53:54;10.83;;;4.07;;
21758;SDS011;11041;50.854;20.580;2024-01-16T02:56:22;5.93;;;4.03;;
21758;SDS011;11041;50.854;20.580;2024-01-16T02:58:51;7.40;;;3.87;;
21758;SDS011;11041;50.854;20.580;2024-01-16T03:01:18;9.13;;;4.00;;
21758;SDS011;11041;50.854;20.580;2024-01-16T03:03:44;8.93;;;4.13;;
21758;SDS011;11041;50.854;20.580;2024-01-16T03:06:23;7.47;;;4.30;;
21758;SDS011;11041;50.854;20.580;2024-01-16T03:08:56;8.27;;;5.10;;
21758;SDS011;11041;50.854;20.580;2024-01-16T03:11:24;7.07;;;4.03;;
21758;SDS011;11041;50.854;20.580;2024-01-16T03:13:53;8.70;;;4.40;;
21758;SDS011;11041;50.854;20.580;2024-01-16T03:16:27;8.97;;;4.20;;
21758;SDS011;11041;50.854;20.580;2024-01-16T03:18:59;11.27;;;5.23;;
21758;SDS011;11041;50.854;20.580;2024-01-16T03:21:33;8.73;;;3.53;;
21758;SDS011;11041;50.854;20.580;2024-01-16T03:24:03;7.40;;;3.70;;
21758;SDS011;11041;50.854;20.580;2024-01-16T03:26:39;9.97;;;3.60;;
21758;SDS011;11041;50.854;20.580;2024-01-16T03:29:08;7.53;;;3.43;;
21758;SDS011;11041;50.854;20.580;2024-01-16T03:31:40;5.77;;;2.90;;
21758;SDS011;11041;50.854;20.580;2024-01-16T03:34:11;5.20;;;2.80;;
21758;SDS011;11041;50.854;20.580;2024-01-16T03:36:44;4.83;;;2.83;;
21758;SDS011;11041;50.854;20.580;2024-01-16T03:39:14;6.00;;;2.83;;
21758;SDS011;11041;50.854;20.580;2024-01-16T03:41:45;4.10;;;2.70;;
21758;SDS011;11041;50.854;20.580;2024-01-16T03:44:17;4.53;;;2.60;;
21758;SDS011;11041;50.854;20.580;2024-01-16T03:46:47;9.20;;;3.27;;
21758;SDS011;11041;50.854;20.580;2024-01-16T03:49:14;6.27;;;2.90;;
21758;SDS011;11041;50.854;20.580;2024-01-16T03:51:45;7.70;;;3.27;;
21758;SDS011;11041;50.854;20.580;2024-01-16T03:54:16;7.23;;;3.03;;
21758;SDS011;11041;50.854;20.580;2024-01-16T03:56:46;6.43;;;2.70;;
21758;SDS011;11041;50.854;20.580;2024-01-16T03:59:23;3.90;;;2.60;;
21758;SDS011;11041;50.854;20.580;2024-01-16T04:01:50;4.73;;;2.67;;
21758;SDS011;11041;50.854;20.580;2024-01-16T04:04:22;4.17;;;2.80;;
21758;SDS011;11041;50.854;20.580;2024-01-16T04:06:51;2.00;;;1.80;;
21758;SDS011;11041;50.854;20.580;2024-01-16T04:09:18;6.00;;;2.50;;
21758;SDS011;11041;50.854;20.580;2024-01-16T04:11:49;3.10;;;2.43;;
21758;SDS011;11041;50.854;20.580;2024-01-16T04:14:20;4.43;;;2.70;;
21758;SDS011;11041;50.854;20.580;2024-01-16T04:16:51;7.07;;;2.70;;
21758;SDS011;11041;50.854;20.580;2024-01-16T04:19:19;8.23;;;3.33;;
21758;SDS011;11041;50.854;20.580;2024-01-16T04:21:48;6.93;;;3.17;;
21758;SDS011;11041;50.854;20.580;2024-01-16T04:24:19;6.13;;;2.70;;
21758;SDS011;11041;50.854;20.580;2024-01-16T04:26:51;7.13;;;3.20;;
21758;SDS011;11041;50.854;20.580;2024-01-16T04:29:19;6.27;;;3.17;;
21758;SDS011;11041;50.854;20.580;2024-01-16T04:31:46;5.87;;;3.50;;
21758;SDS011;11041;50.854;20.580;2024-01-16T04:34:15;4.80;;;3.40;;
21758;SDS011;11041;50.854;20.580;2024-01-16T04:36:46;4.77;;;3.17;;
21758;SDS011;11041;50.854;20.580;2024-01-16T04:39:19;4.50;;;2.77;;
21758;SDS011;11041;50.854;20.580;2024-01-16T04:41:48;8.90;;;3.67;;
21758;SDS011;11041;50.854;20.580;2024-01-16T04:44:16;6.47;;;3.10;;
21758;SDS011;11041;50.854;20.580;2024-01-16T04:46:43;4.77;;;2.77;;
21758;SDS011;11041;50.854;20.580;2024-01-16T04:49:12;5.03;;;2.73;;
21758;SDS011;11041;50.854;20.580;2024-01-16T04:51:47;6.57;;;3.27;;
21758;SDS011;11041;50.854;20.580;2024-01-16T04:54:15;5.53;;;3.13;;
21758;SDS011;11041;50.854;20.580;2024-01-16T04:56:45;4.73;;;3.20;;
21758;SDS011;11041;50.854;20.580;2024-01-16T04:59:13;7.20;;;3.03;;
21758;SDS011;11041;50.854;20.580;2024-01-16T05:01:44;5.67;;;3.00;;
21758;SDS011;11041;50.854;20.580;2024-01-16T05:04:11;4.07;;;2.73;;
21758;SDS011;11041;50.854;20.580;2024-01-16T05:06:44;5.97;;;3.23;;
21758;SDS011;11041;50.854;20.580;2024-01-16T05:09:11;9.40;;;4.13;;
21758;SDS011;11041;50.854;20.580;2024-01-16T05:11:39;5.30;;;3.43;;
21758;SDS011;11041;50.854;20.580;2024-01-16T05:14:11;9.50;;;4.37;;
21758;SDS011;11041;50.854;20.580;2024-01-16T05:16:45;9.17;;;4.70;;
21758;SDS011;11041;50.854;20.580;2024-01-16T05:19:23;10.60;;;5.40;;
21758;SDS011;11041;50.854;20.580;2024-01-16T05:21:55;12.63;;;6.20;;
21758;SDS011;11041;50.854;20.580;2024-01-16T05:24:28;13.83;;;6.10;;
21758;SDS011;11041;50.854;20.580;2024-01-16T05:27:01;16.77;;;7.03;;
21758;SDS011;11041;50.854;20.580;2024-01-16T05:29:32;16.37;;;6.97;;
21758;SDS011;11041;50.854;20.580;2024-01-16T05:32:03;14.63;;;6.60;;
21758;SDS011;11041;50.854;20.580;2024-01-16T05:34:31;19.50;;;7.00;;
21758;SDS011;11041;50.854;20.580;2024-01-16T05:37:01;14.77;;;6.57;;
21758;SDS011;11041;50.854;20.580;2024-01-16T05:39:32;14.63;;;6.30;;
21758;SDS011;11041;50.854;20.580;2024-01-16T05:42:02;17.97;;;6.77;;
21758;SDS011;11041;50.854;20.580;2024-01-16T05:44:32;15.07;;;7.13;;
21758;SDS011;11041;50.854;20.580;2024-01-16T05:47:00;13.60;;;6.20;;
21758;SDS011;11041;50.854;20.580;2024-01-16T05:49:27;14.23;;;6.43;;
21758;SDS011;11041;50.854;20.580;2024-01-16T05:52:01;12.67;;;6.63;;
21758;SDS011;11041;50.854;20.580;2024-01-16T05:54:27;14.30;;;6.43;;
21758;SDS011;11041;50.854;20.580;2024-01-16T05:56:57;15.57;;;6.40;;
21758;SDS011;11041;50.854;20.580;2024-01-16T05:59:28;13.80;;;6.57;;
21758;SDS011;11041;50.854;20.580;2024-01-16T06:01:55;14.30;;;6.73;;
21758;SDS011;11041;50.854;20.580;2024-01-16T06:04:23;11.37;;;6.23;;
21758;SDS011;11041;50.854;20.580;2024-01-16T06:06:52;10.27;;;6.10;;
21758;SDS011;11041;50.854;20.580;2024-01-16T06:09:19;10.20;;;6.07;;
21758;SDS011;11041;50.854;20.580;2024-01-16T06:11:50;14.10;;;5.97;;
21758;SDS011;11041;50.854;20.580;2024-01-16T06:14:17;15.63;;;6.27;;
21758;SDS011;11041;50.854;20.580;2024-01-16T06:16:47;13.37;;;5.97;;
21758;SDS011;11041;50.854;20.580;2024-01-16T06:19:16;12.67;;;5.50;;
21758;SDS011;11041;50.854;20.580;2024-01-16T06:21:46;13.10;;;6.67;;
21758;SDS011;11041;50.854;20.580;2024-01-16T06:24:15;17.83;;;6.60;;
21758;SDS011;11041;50.854;20.580;2024-01-16T06:26:44;14.53;;;6.77;;
21758;SDS011;11041;50.854;20.580;2024-01-16T06:29:10;21.43;;;8.00;;
21758;SDS011;11041;50.854;20.580;2024-01-16T06:31:37;18.57;;;8.40;;
21758;SDS011;11041;50.854;20.580;2024-01-16T06:34:04;18.07;;;8.77;;
21758;SDS011;11041;50.854;20.580;2024-01-16T06:36:31;18.40;;;9.00;;
21758;SDS011;11041;50.854;20.580;2024-01-16T06:38:57;17.97;;;8.07;;
21758;SDS011;11041;50.854;20.580;2024-01-16T06:41:24;10.83;;;6.37;;
21758;SDS011;11041;50.854;20.580;2024-01-16T06:43:52;14.70;;;7.73;;
21758;SDS011;11041;50.854;20.580;2024-01-16T06:46:19;10.93;;;6.23;;
21758;SDS011;11041;50.854;20.580;2024-01-16T06:48:46;10.80;;;7.07;;
21758;SDS011;11041;50.854;20.580;2024-01-16T06:51:14;15.27;;;7.20;;
21758;SDS011;11041;50.854;20.580;2024-01-16T06:53:41;16.70;;;7.87;;
21758;SDS011;11041;50.854;20.580;2024-01-16T06:56:09;19.63;;;10.60;;
21758;SDS011;11041;50.854;20.580;2024-01-16T06:58:38;18.80;;;9.73;;
21758;SDS011;11041;50.854;20.580;2024-01-16T07:01:08;17.20;;;10.53;;
21758;SDS011;11041;50.854;20.580;2024-01-16T07:03:37;17.13;;;8.63;;
21758;SDS011;11041;50.854;20.580;2024-01-16T07:06:04;17.57;;;8.23;;
21758;SDS011;11041;50.854;20.580;2024-01-16T07:08:37;14.90;;;8.33;;
21758;SDS011;11041;50.854;20.580;2024-01-16T07:11:05;19.07;;;9.07;;
21758;SDS011;11041;50.854;20.580;2024-01-16T07:13:36;19.07;;;9.23;;
21758;SDS011;11041;50.854;20.580;2024-01-16T07:16:03;19.20;;;9.53;;
21758;SDS011;11041;50.854;20.580;2024-01-16T07:18:32;21.90;;;10.10;;
21758;SDS011;11041;50.854;20.580;2024-01-16T07:20:59;19.30;;;9.40;;
21758;SDS011;11041;50.854;20.580;2024-01-16T07:23:27;19.00;;;8.87;;
21758;SDS011;11041;50.854;20.580;2024-01-16T07:25:54;20.43;;;8.40;;
21758;SDS011;11041;50.854;20.580;2024-01-16T07:28:20;19.23;;;8.90;;
21758;SDS011;11041;50.854;20.580;2024-01-16T07:30:50;18.60;;;8.90;;
21758;SDS011;11041;50.854;20.580;2024-01-16T07:33:22;17.43;;;8.50;;
21758;SDS011;11041;50.854;20.580;2024-01-16T07:35:50;15.63;;;7.27;;
21758;SDS011;11041;50.854;20.580;2024-01-16T07:38:21;17.97;;;7.37;;
21758;SDS011;11041;50.854;20.580;2024-01-16T07:40:47;15.73;;;6.90;;
21758;SDS011;11041;50.854;20.580;2024-01-16T07:43:15;14.17;;;6.83;;
21758;SDS011;11041;50.854;20.580;2024-01-16T07:45:44;14.83;;;6.63;;
21758;SDS011;11041;50.854;20.580;2024-01-16T07:48:11;14.17;;;8.23;;
21758;SDS011;11041;50.854;20.580;2024-01-16T07:50:40;15.67;;;8.03;;
21758;SDS011;11041;50.854;20.580;2024-01-16T07:53:10;15.70;;;8.90;;
21758;SDS011;11041;50.854;20.580;2024-01-16T07:55:37;19.10;;;9.37;;
21758;SDS011;11041;50.854;20.580;2024-01-16T07:58:04;16.17;;;9.13;;
21758;SDS011;11041;50.854;20.580;2024-01-16T08:00:32;19.83;;;9.23;;
21758;SDS011;11041;50.854;20.580;2024-01-16T08:02:59;14.20;;;7.83;;
21758;SDS011;11041;50.854;20.580;2024-01-16T08:05:26;15.40;;;6.73;;
21758;SDS011;11041;50.854;20.580;2024-01-16T08:07:59;11.60;;;7.63;;
21758;SDS011;11041;50.854;20.580;2024-01-16T08:10:26;17.73;;;7.20;;
21758;SDS011;11041;50.854;20.580;2024-01-16T08:12:52;15.57;;;7.83;;
21758;SDS011;11041;50.854;20.580;2024-01-16T08:15:19;12.00;;;6.30;;
21758;SDS011;11041;50.854;20.580;2024-01-16T08:17:48;17.07;;;8.43;;
21758;SDS011;11041;50.854;20.580;2024-01-16T08:20:16;19.73;;;9.37;;
21758;SDS011;11041;50.854;20.580;2024-01-16T08:22:43;21.10;;;10.53;;
21758;SDS011;11041;50.854;20.580;2024-01-16T08:25:10;13.77;;;7.13;;
21758;SDS011;11041;50.854;20.580;2024-01-16T08:27:37;14.47;;;7.63;;
21758;SDS011;11041;50.854;20.580;2024-01-16T08:30:06;11.40;;;6.60;;
21758;SDS011;11041;50.854;20.580;2024-01-16T08:32:34;10.33;;;4.83;;
21758;SDS011;11041;50.854;20.580;2024-01-16T08:35:01;14.67;;;6.70;;
21758;SDS011;11041;50.854;20.580;2024-01-16T08:37:28;14.63;;;7.47;;
21758;SDS011;11041;50.854;20.580;2024-01-16T08:39:55;14.17;;;7.40;;
21758;SDS011;11041;50.854;20.580;2024-01-16T08:42:24;11.20;;;6.27;;
21758;SDS011;11041;50.854;20.580;2024-01-16T08:44:52;11.20;;;6.57;;
21758;SDS011;11041;50.854;20.580;2024-01-16T08:47:20;12.17;;;6.57;;
21758;SDS011;11041;50.854;20.580;2024-01-16T08:49:47;9.73;;;5.93;;
21758;SDS011;11041;50.854;20.580;2024-01-16T08:52:16;7.80;;;5.10;;
21758;SDS011;11041;50.854;20.580;2024-01-16T08:54:43;11.67;;;5.90;;
21758;SDS011;11041;50.854;20.580;2024-01-16T08:57:10;10.47;;;5.27;;
21758;SDS011;11041;50.854;20.580;2024-01-16T08:59:39;8.30;;;5.40;;
21758;SDS011;11041;50.854;20.580;2024-01-16T09:02:09;11.37;;;5.57;;
21758;SDS011;11041;50.854;20.580;2024-01-16T09:04:41;10.10;;;5.40;;
21758;SDS011;11041;50.854;20.580;2024-01-16T09:07:08;10.57;;;5.20;;
21758;SDS011;11041;50.854;20.580;2024-01-16T09:09:42;10.17;;;5.77;;
21758;SDS011;11041;50.854;20.580;2024-01-16T09:12:13;11.60;;;6.03;;
21758;SDS011;11041;50.854;20.580;2024-01-16T09:14:41;10.80;;;5.97;;
21758;SDS011;11041;50.854;20.580;2024-01-16T09:17:09;14.30;;;6.87;;
21758;SDS011;11041;50.854;20.580;2024-01-16T09:19:37;27.90;;;18.93;;
21758;SDS011;11041;50.854;20.580;2024-01-16T09:22:06;11.87;;;6.80;;
21758;SDS011;11041;50.854;20.580;2024-01-16T09:24:37;13.47;;;6.77;;
21758;SDS011;11041;50.854;20.580;2024-01-16T09:27:05;10.67;;;7.10;;
21758;SDS011;11041;50.854;20.580;2024-01-16T09:29:36;12.33;;;7.10;;
21758;SDS011;11041;50.854;20.580;2024-01-16T09:32:06;11.47;;;6.17;;
21758;SDS011;11041;50.854;20.580;2024-01-16T09:34:34;11.90;;;6.20;;
21758;SDS011;11041;50.854;20.580;2024-01-16T09:37:05;13.60;;;7.40;;
21758;SDS011;11041;50.854;20.580;2024-01-16T09:39:35;12.10;;;5.80;;
21758;SDS011;11041;50.854;20.580;2024-01-16T09:42:07;12.80;;;6.67;;
21758;SDS011;11041;50.854;20.580;2024-01-16T09:44:34;16.17;;;7.47;;
21758;SDS011;11041;50.854;20.580;2024-01-16T09:47:01;11.97;;;7.10;;
21758;SDS011;11041;50.854;20.580;2024-01-16T09:49:32;14.13;;;6.80;;
21758;SDS011;11041;50.854;20.580;2024-01-16T09:52:00;10.77;;;6.70;;
21758;SDS011;11041;50.854;20.580;2024-01-16T09:54:29;9.03;;;6.07;;
21758;SDS011;11041;50.854;20.580;2024-01-16T09:56:58;10.63;;;7.13;;
21758;SDS011;11041;50.854;20.580;2024-01-16T09:59:30;8.90;;;5.30;;
21758;SDS011;11041;50.854;20.580;2024-01-16T10:02:02;10.23;;;5.13;;
21758;SDS011;11041;50.854;20.580;2024-01-16T10:04:32;10.10;;;6.43;;
21758;SDS011;11041;50.854;20.580;2024-01-16T10:07:02;7.93;;;5.13;;
21758;SDS011;11041;50.854;20.580;2024-01-16T10:09:32;9.47;;;4.73;;
21758;SDS011;11041;50.854;20.580;2024-01-16T10:12:07;6.63;;;4.23;;
21758;SDS011;11041;50.854;20.580;2024-01-16T10:14:36;8.73;;;4.57;;
21758;SDS011;11041;50.854;20.580;2024-01-16T10:17:05;12.57;;;5.70;;
21758;SDS011;11041;50.854;20.580;2024-01-16T10:19:49;8.43;;;4.70;;
21758;SDS011;11041;50.854;20.580;2024-01-16T10:22:20;7.63;;;4.80;;
21758;SDS011;11041;50.854;20.580;2024-01-16T10:25:05;10.63;;;5.47;;
21758;SDS011;11041;50.854;20.580;2024-01-16T10:27:36;5.10;;;3.17;;
21758;SDS011;11041;50.854;20.580;2024-01-16T10:30:06;8.07;;;5.23;;
21758;SDS011;11041;50.854;20.580;2024-01-16T10:32:42;6.13;;;4.37;;
21758;SDS011;11041;50.854;20.580;2024-01-16T10:35:10;6.67;;;4.63;;
21758;SDS011;11041;50.854;20.580;2024-01-16T10:40:19;5.13;;;3.00;;
21758;SDS011;11041;50.854;20.580;2024-01-16T10:43:04;10.60;;;6.73;;
21758;SDS011;11041;50.854;20.580;2024-01-16T10:45:34;11.80;;;5.23;;
21758;SDS011;11041;50.854;20.580;2024-01-16T10:48:04;11.53;;;6.17;;
21758;SDS011;11041;50.854;20.580;2024-01-16T10:50:35;8.83;;;5.30;;
21758;SDS011;11041;50.854;20.580;2024-01-16T10:53:07;9.57;;;4.97;;
21758;SDS011;11041;50.854;20.580;2024-01-16T10:56:00;9.03;;;5.03;;
21758;SDS011;11041;50.854;20.580;2024-01-16T10:58:30;8.10;;;5.03;;
21758;SDS011;11041;50.854;20.580;2024-01-16T11:01:03;9.50;;;5.10;;
21758;SDS011;11041;50.854;20.580;2024-01-16T11:03:48;7.53;;;4.23;;
21758;SDS011;11041;50.854;20.580;2024-01-16T11:06:19;6.57;;;4.53;;
21758;SDS011;11041;50.854;20.580;2024-01-16T11:08:49;10.67;;;5.70;;
21758;SDS011;11041;50.854;20.580;2024-01-16T11:11:17;22.40;;;10.57;;
21758;SDS011;11041;50.854;20.580;2024-01-16T11:13:48;22.90;;;10.43;;
21758;SDS011;11041;50.854;20.580;2024-01-16T11:16:18;22.13;;;10.37;;
21758;SDS011;11041;50.854;20.580;2024-01-16T11:18:48;15.83;;;7.03;;
21758;SDS011;11041;50.854;20.580;2024-01-16T11:21:15;15.63;;;6.83;;
21758;SDS011;11041;50.854;20.580;2024-01-16T11:23:43;12.27;;;5.80;;
21758;SDS011;11041;50.854;20.580;2024-01-16T11:26:34;8.60;;;4.97;;
21758;SDS011;11041;50.854;20.580;2024-01-16T11:32:01;9.07;;;5.93;;
21758;SDS011;11041;50.854;20.580;2024-01-16T11:37:07;8.83;;;5.23;;
21758;SDS011;11041;50.854;20.580;2024-01-16T11:39:37;11.53;;;5.37;;
21758;SDS011;11041;50.854;20.580;2024-01-16T11:42:04;5.33;;;3.03;;
21758;SDS011;11041;50.854;20.580;2024-01-16T11:44:45;13.73;;;5.80;;
21758;SDS011;11041;50.854;20.580;2024-01-16T11:47:16;9.80;;;5.10;;
21758;SDS011;11041;50.854;20.580;2024-01-16T11:50:08;8.47;;;4.90;;
21758;SDS011;11041;50.854;20.580;2024-01-16T11:52:40;9.27;;;4.80;;
21758;SDS011;11041;50.854;20.580;2024-01-16T12:00:49;11.60;;;5.77;;
21758;SDS011;11041;50.854;20.580;2024-01-16T12:03:21;6.60;;;4.53;;
21758;SDS011;11041;50.854;20.580;2024-01-16T12:05:56;12.47;;;6.33;;
21758;SDS011;11041;50.854;20.580;2024-01-16T12:08:26;20.07;;;9.27;;
21758;SDS011;11041;50.854;20.580;2024-01-16T12:10:56;45.63;;;19.40;;
21758;SDS011;11041;50.854;20.580;2024-01-16T12:13:26;23.33;;;10.97;;
21758;SDS011;11041;50.854;20.580;2024-01-16T12:16:02;9.63;;;6.23;;
21758;SDS011;11041;50.854;20.580;2024-01-16T12:18:30;69.87;;;30.60;;
21758;SDS011;11041;50.854;20.580;2024-01-16T12:21:07;23.97;;;10.83;;
21758;SDS011;11041;50.854;20.580;2024-01-16T12:23:36;47.93;;;20.43;;
21758;SDS011;11041;50.854;20.580;2024-01-16T12:26:03;31.00;;;16.57;;
21758;SDS011;11041;50.854;20.580;2024-01-16T12:28:30;20.20;;;12.73;;
21758;SDS011;11041;50.854;20.580;2024-01-16T12:30:58;16.80;;;8.13;;
21758;SDS011;11041;50.854;20.580;2024-01-16T12:33:25;14.13;;;6.73;;
21758;SDS011;11041;50.854;20.580;2024-01-16T12:36:00;12.97;;;6.60;;
21758;SDS011;11041;50.854;20.580;2024-01-16T12:38:30;12.70;;;7.13;;
21758;SDS011;11041;50.854;20.580;2024-01-16T12:40:58;14.23;;;7.47;;
21758;SDS011;11041;50.854;20.580;2024-01-16T12:43:27;8.83;;;5.37;;
21758;SDS011;11041;50.854;20.580;2024-01-16T12:45:54;10.80;;;6.27;;
21758;SDS011;11041;50.854;20.580;2024-01-16T12:48:25;10.60;;;5.67;;
21758;SDS011;11041;50.854;20.580;2024-01-16T12:50:59;10.90;;;6.60;;
21758;SDS011;11041;50.854;20.580;2024-01-16T12:53:32;11.53;;;6.33;;
21758;SDS011;11041;50.854;20.580;2024-01-16T12:56:02;14.50;;;7.23;;
21758;SDS011;11041;50.854;20.580;2024-01-16T12:58:32;12.50;;;6.53;;
21758;SDS011;11041;50.854;20.580;2024-01-16T13:03:52;13.97;;;5.80;;
21758;SDS011;11041;50.854;20.580;2024-01-16T13:06:22;11.80;;;7.70;;
21758;SDS011;11041;50.854;20.580;2024-01-16T13:09:03;13.33;;;7.23;;
21758;SDS011;11041;50.854;20.580;2024-01-16T13:11:48;12.47;;;7.07;;
21758;SDS011;11041;50.854;20.580;2024-01-16T13:14:18;13.63;;;7.27;;
21758;SDS011;11041;50.854;20.580;2024-01-16T13:16:49;13.23;;;7.37;;
21758;SDS011;11041;50.854;20.580;2024-01-16T13:19:18;8.07;;;4.67;;
21758;SDS011;11041;50.854;20.580;2024-01-16T13:21:45;15.13;;;6.73;;
21758;SDS011;11041;50.854;20.580;2024-01-16T13:24:14;14.63;;;7.93;;
21758;SDS011;11041;50.854;20.580;2024-01-16T13:26:44;11.83;;;6.90;;
21758;SDS011;11041;50.854;20.580;2024-01-16T13:29:12;13.87;;;7.20;;
21758;SDS011;11041;50.854;20.580;2024-01-16T13:31:39;13.10;;;6.33;;
21758;SDS011;11041;50.854;20.580;2024-01-16T13:34:06;13.70;;;6.57;;
21758;SDS011;11041;50.854;20.580;2024-01-16T13:36:33;11.50;;;6.37;;
21758;SDS011;11041;50.854;20.580;2024-01-16T13:39:00;13.00;;;6.33;;
21758;SDS011;11041;50.854;20.580;2024-01-16T13:41:27;11.87;;;6.63;;
21758;SDS011;11041;50.854;20.580;2024-01-16T13:43:54;13.83;;;6.87;;
21758;SDS011;11041;50.854;20.580;2024-01-16T13:46:21;14.83;;;7.27;;
21758;SDS011;11041;50.854;20.580;2024-01-16T13:48:53;10.13;;;6.10;;
21758;SDS011;11041;50.854;20.580;2024-01-16T13:51:23;16.13;;;7.93;;
21758;SDS011;11041;50.854;20.580;2024-01-16T13:53:55;11.30;;;6.67;;
21758;SDS011;11041;50.854;20.580;2024-01-16T13:56:22;12.57;;;7.70;;
21758;SDS011;11041;50.854;20.580;2024-01-16T13:58:50;15.60;;;8.73;;
21758;SDS011;11041;50.854;20.580;2024-01-16T14:01:17;19.93;;;9.30;;
21758;SDS011;11041;50.854;20.580;2024-01-16T14:03:45;22.73;;;10.73;;
21758;SDS011;11041;50.854;20.580;2024-01-16T14:06:13;21.70;;;10.80;;
21758;SDS011;11041;50.854;20.580;2024-01-16T14:08:42;17.53;;;10.40;;
21758;SDS011;11041;50.854;20.580;2024-01-16T14:11:09;21.30;;;9.80;;
21758;SDS011;11041;50.854;20.580;2024-01-16T14:13:37;17.20;;;10.00;;
21758;SDS011;11041;50.854;20.580;2024-01-16T14:16:06;18.27;;;10.50;;
21758;SDS011;11041;50.854;20.580;2024-01-16T14:18:33;21.90;;;10.73;;
21758;SDS011;11041;50.854;20.580;2024-01-16T14:21:00;14.50;;;8.53;;
21758;SDS011;11041;50.854;20.580;2024-01-16T14:23:31;17.63;;;9.10;;
21758;SDS011;11041;50.854;20.580;2024-01-16T14:26:00;22.23;;;9.67;;
21758;SDS011;11041;50.854;20.580;2024-01-16T14:28:26;24.40;;;12.00;;
21758;SDS011;11041;50.854;20.580;2024-01-16T14:30:54;23.93;;;12.40;;
21758;SDS011;11041;50.854;20.580;2024-01-16T14:33:23;20.47;;;11.47;;
21758;SDS011;11041;50.854;20.580;2024-01-16T14:35:51;24.00;;;11.90;;
21758;SDS011;11041;50.854;20.580;2024-01-16T14:38:20;26.37;;;11.83;;
21758;SDS011;11041;50.854;20.580;2024-01-16T14:40:47;27.70;;;12.60;;
21758;SDS011;11041;50.854;20.580;2024-01-16T14:43:17;31.57;;;14.23;;
21758;SDS011;11041;50.854;20.580;2024-01-16T14:45:44;32.80;;;13.73;;
21758;SDS011;11041;50.854;20.580;2024-01-16T14:48:11;26.43;;;13.43;;
21758;SDS011;11041;50.854;20.580;2024-01-16T14:50:38;29.40;;;13.80;;
21758;SDS011;11041;50.854;20.580;2024-01-16T14:53:05;31.40;;;13.77;;
21758;SDS011;11041;50.854;20.580;2024-01-16T14:55:34;27.20;;;13.93;;